NCAR-RAP Real-Time Weather Data

Output produced by METARs form (19 November 2018  11:47 UTC)
found at http://weather.rap.ucar.edu/surface/
 
Conditions at: KPGD observed 19 November 2018  10:53 UTC
Temperature: 20.0°C (68°F)
Dewpoint: 18.9°C (66°F) [RH = 93%]
Pressure (altimeter): 30.09 inches Hg (1019.0 mb)
[Sea-level pressure: 1018.9 mb]
Winds: from the NE (40 degrees) at 5 MPH (4 knots; 2.1 m/s)
Visibility: 10 or more miles (16+ km)
Ceiling: 6000 feet AGL
Clouds: overcast cloud deck at 6000 feet AGL
Present Weather: no significant weather observed at this time
KPGD 191053Z 04004KT 10SM OVC060 20/19 A3009 RMK AO2 SLP189 T02000189

Conditions at: KPGD observed 19 November 2018  09:53 UTC
Temperature: 19.4°C (67°F)
Dewpoint: 18.3°C (65°F) [RH = 93%]
Pressure (altimeter): 30.08 inches Hg (1018.7 mb)
[Sea-level pressure: 1018.6 mb]
Winds: from the NE (40 degrees) at 7 MPH (6 knots; 3.1 m/s)
Visibility: 10 or more miles (16+ km)
Ceiling: 8500 feet AGL
Clouds: scattered clouds at 5000 feet AGL
broken clouds at 8500 feet AGL
Present Weather: automated observation with no human augmentation;
there may or may not be significant weather present at this time
KPGD 190953Z AUTO 04006KT 10SM SCT050 BKN085 19/18 A3008 RMK AO2 RAE0856 SLP186 P0000 T01940183

Conditions at: KPGD observed 19 November 2018  08:53 UTC
Temperature: 20.6°C (69°F)
Dewpoint: 18.9°C (66°F) [RH = 90%]
Pressure (altimeter): 30.08 inches Hg (1018.7 mb)
[Sea-level pressure: 1018.7 mb]
Winds: from the ESE (120 degrees) at 6 MPH (5 knots; 2.6 m/s)
Visibility: 7 miles (11 km)
Ceiling: 4900 feet AGL
Clouds: overcast cloud deck at 4900 feet AGL
Present Weather: -RA  (light rain)
KPGD 190853Z AUTO 12005KT 7SM -RA OVC049 21/19 A3008 RMK AO2 RAB35 SLP187 P0000 60000 T02060189 56004

Conditions at: KPGD observed 19 November 2018  07:53 UTC
Temperature: 21.1°C (70°F)
Dewpoint: 19.4°C (67°F) [RH = 90%]
Pressure (altimeter): 30.08 inches Hg (1018.7 mb)
[Sea-level pressure: 1018.7 mb]
Winds: from the SSW (210 degrees) at 3 MPH (3 knots; 1.6 m/s)
Visibility: 10 or more miles (16+ km)
Ceiling: 5500 feet AGL
Clouds: overcast cloud deck at 5500 feet AGL
Present Weather: automated observation with no human augmentation;
there may or may not be significant weather present at this time
KPGD 190753Z AUTO 21003KT 10SM OVC055 21/19 A3008 RMK AO2 RAB00E17 SLP187 P0000 T02110194

Conditions at: KPGD observed 19 November 2018  06:53 UTC
Temperature: 21.7°C (71°F)
Dewpoint: 18.9°C (66°F) [RH = 84%]
Pressure (altimeter): 30.09 inches Hg (1019.0 mb)
[Sea-level pressure: 1018.8 mb]
Winds: from the SW (230 degrees) at 6 MPH (5 knots; 2.6 m/s)
Visibility: 10 or more miles (16+ km)
Ceiling: 7000 feet AGL
Clouds: overcast cloud deck at 7000 feet AGL
Present Weather: automated observation with no human augmentation;
there may or may not be significant weather present at this time
KPGD 190653Z AUTO 23005KT 10SM OVC070 22/19 A3009 RMK AO2 SLP188 T02170189

Conditions at: KPGD observed 19 November 2018  05:53 UTC
Temperature: 21.7°C (71°F)
Dewpoint: 18.3°C (65°F) [RH = 81%]
Pressure (altimeter): 30.09 inches Hg (1019.0 mb)
[Sea-level pressure: 1019.0 mb]
Winds: calm
Visibility: 10 or more miles (16+ km)
Ceiling: 5500 feet AGL
Clouds: scattered clouds at 3100 feet AGL
broken clouds at 5500 feet AGL
overcast cloud deck at 7000 feet AGL
Present Weather: automated observation with no human augmentation;
there may or may not be significant weather present at this time
KPGD 190553Z AUTO 00000KT 10SM SCT031 BKN055 OVC070 22/18 A3009 RMK AO2 SLP190 T02170183 10228 20217 56010

Conditions at: KPGD observed 19 November 2018  04:53 UTC
Temperature: 22.2°C (72°F)
Dewpoint: 17.8°C (64°F) [RH = 76%]
Pressure (altimeter): 30.09 inches Hg (1019.0 mb)
[Sea-level pressure: 1019.1 mb]
Winds: calm
Visibility: 10 or more miles (16+ km)
Ceiling: 5500 feet AGL
Clouds: broken clouds at 5500 feet AGL
overcast cloud deck at 7500 feet AGL
Present Weather: automated observation with no human augmentation;
there may or may not be significant weather present at this time
KPGD 190453Z AUTO 00000KT 10SM BKN055 OVC075 22/18 A3009 RMK AO2 SLP191 T02220178 402780139

Conditions at: KPGD observed 19 November 2018  03:53 UTC
Temperature: 22.2°C (72°F)
Dewpoint: 17.8°C (64°F) [RH = 76%]
Pressure (altimeter): 30.11 inches Hg (1019.7 mb)
[Sea-level pressure: 1019.7 mb]
Winds: from the E (80 degrees) at 5 MPH (4 knots; 2.1 m/s)
Visibility: 10 or more miles (16+ km)
Ceiling: 5000 feet AGL
Clouds: overcast cloud deck at 5000 feet AGL
Present Weather: automated observation with no human augmentation;
there may or may not be significant weather present at this time
KPGD 190353Z AUTO 08004KT 10SM OVC050 22/18 A3011 RMK AO2 SLP197 T02220178

Conditions at: KPGD observed 19 November 2018  02:53 UTC
Temperature: 22.2°C (72°F)
Dewpoint: 17.8°C (64°F) [RH = 76%]
Pressure (altimeter): 30.12 inches Hg (1020.1 mb)
[Sea-level pressure: 1020.0 mb]
Winds: from the ESE (120 degrees) at 5 MPH (4 knots; 2.1 m/s)
Visibility: 10 or more miles (16+ km)
Ceiling: 4800 feet AGL
Clouds: scattered clouds at 4000 feet AGL
broken clouds at 4800 feet AGL
overcast cloud deck at 6000 feet AGL
Present Weather: automated observation with no human augmentation;
there may or may not be significant weather present at this time
KPGD 190253Z AUTO 12004KT 10SM SCT040 BKN048 OVC060 22/18 A3012 RMK AO2 SLP200 T02220178 51012

Conditions at: KPGD observed 19 November 2018  01:53 UTC
Temperature: 22.2°C (72°F)
Dewpoint: 17.8°C (64°F) [RH = 76%]
Pressure (altimeter): 30.11 inches Hg (1019.7 mb)
[Sea-level pressure: 1019.7 mb]
Winds: from the NNE (20 degrees) at 3 MPH (3 knots; 1.6 m/s)
Visibility: 10 or more miles (16+ km)
Ceiling: 6000 feet AGL
Clouds: scattered clouds at 4500 feet AGL
broken clouds at 6000 feet AGL
overcast cloud deck at 8000 feet AGL
Present Weather: automated observation with no human augmentation;
there may or may not be significant weather present at this time
KPGD 190153Z AUTO 02003KT 10SM SCT045 BKN060 OVC080 22/18 A3011 RMK AO2 SLP197 T02220178

Conditions at: KPGD observed 19 November 2018  00:53 UTC
Temperature: 22.2°C (72°F)
Dewpoint: 17.8°C (64°F) [RH = 76%]
Pressure (altimeter): 30.10 inches Hg (1019.4 mb)
[Sea-level pressure: 1019.2 mb]
Winds: from the NNE (20 degrees) at 6 MPH (5 knots; 2.6 m/s)
Visibility: 10 or more miles (16+ km)
Ceiling: 6000 feet AGL
Clouds: broken clouds at 6000 feet AGL
Present Weather: no significant weather observed at this time
KPGD 190053Z 02005KT 10SM BKN060 22/18 A3010 RMK AO2 SLP192 T02220178

Conditions at: KPGD observed 18 November 2018  23:53 UTC
Temperature: 22.8°C (73°F)
Dewpoint: 17.8°C (64°F) [RH = 73%]
Pressure (altimeter): 30.09 inches Hg (1019.0 mb)
[Sea-level pressure: 1018.8 mb]
Winds: from the NE (40 degrees) at 7 MPH (6 knots; 3.1 m/s)
Visibility: 10 or more miles (16+ km)
Ceiling: 6500 feet AGL
Clouds: broken clouds at 6500 feet AGL
Present Weather: no significant weather observed at this time
KPGD 182353Z 04006KT 10SM BKN065 23/18 A3009 RMK AO2 SLP188 T02280178 10278 20222 53002

Conditions at: KPGD observed 18 November 2018  22:53 UTC
Temperature: 22.2°C (72°F)
Dewpoint: 17.8°C (64°F) [RH = 76%]
Pressure (altimeter): 30.07 inches Hg (1018.4 mb)
[Sea-level pressure: 1018.4 mb]
Winds: from the ENE (60 degrees) at 6 MPH (5 knots; 2.6 m/s)
Visibility: 10 or more miles (16+ km)
Ceiling: 7500 feet AGL
Clouds: broken clouds at 7500 feet AGL
Present Weather: no significant weather observed at this time
KPGD 182253Z 06005KT 10SM BKN075 22/18 A3007 RMK AO2 SLP184 T02220178

Conditions at: KPGD observed 18 November 2018  21:53 UTC
Temperature: 25.6°C (78°F)
Dewpoint: 17.2°C (63°F) [RH = 60%]
Pressure (altimeter): 30.07 inches Hg (1018.4 mb)
[Sea-level pressure: 1018.4 mb]
Winds: from the ENE (70 degrees) at 8 MPH (7 knots; 3.6 m/s)
Visibility: 10 or more miles (16+ km)
Ceiling: 9000 feet AGL
Clouds: scattered clouds at 6000 feet AGL
broken clouds at 9000 feet AGL
Present Weather: no significant weather observed at this time
KPGD 182153Z 07007KT 10SM SCT060 BKN090 26/17 A3007 RMK AO2 SLP184 T02560172

Conditions at: KPGD observed 18 November 2018  20:53 UTC
Temperature: 26.1°C (79°F)
Dewpoint: 17.2°C (63°F) [RH = 58%]
Pressure (altimeter): 30.08 inches Hg (1018.7 mb)
[Sea-level pressure: 1018.6 mb]
Winds: from the ENE (60 degrees) at 5 MPH (4 knots; 2.1 m/s)
Visibility: 10 or more miles (16+ km)
Ceiling: 7500 feet AGL
Clouds: scattered clouds at 6000 feet AGL
broken clouds at 7500 feet AGL
Present Weather: no significant weather observed at this time
KPGD 182053Z 06004KT 10SM SCT060 BKN075 26/17 A3008 RMK AO2 SLP186 T02610172 56012

Conditions at: KPGD observed 18 November 2018  19:53 UTC
Temperature: 26.1°C (79°F)
Dewpoint: 16.7°C (62°F) [RH = 56%]
Pressure (altimeter): 30.08 inches Hg (1018.7 mb)
[Sea-level pressure: 1018.7 mb]
Winds: from the NNE (30 degrees) at 7 MPH (6 knots; 3.1 m/s)
Visibility: 10 or more miles (16+ km)
Ceiling: 6000 feet AGL
Clouds: scattered clouds at 4600 feet AGL
broken clouds at 6000 feet AGL
broken clouds at 7000 feet AGL
Present Weather: no significant weather observed at this time
KPGD 181953Z 03006KT 10SM SCT046 BKN060 BKN070 26/17 A3008 RMK AO2 SLP187 T02610167

Conditions at: KPGD observed 18 November 2018  18:53 UTC
Temperature: 26.1°C (79°F)
Dewpoint: 16.7°C (62°F) [RH = 56%]
Pressure (altimeter): 30.09 inches Hg (1019.0 mb)
[Sea-level pressure: 1018.9 mb]
Winds: variable direction winds at 7 MPH (6 knots; 3.1 m/s)
Visibility: 10 or more miles (16+ km)
Ceiling: 6500 feet AGL
Clouds: scattered clouds at 4000 feet AGL
broken clouds at 6500 feet AGL
Present Weather: no significant weather observed at this time
KPGD 181853Z VRB06KT 10SM SCT040 BKN065 26/17 A3009 RMK AO2 SLP189 T02610167

Conditions at: KPGD observed 18 November 2018  17:53 UTC
Temperature: 26.1°C (79°F)
Dewpoint: 16.7°C (62°F) [RH = 56%]
Pressure (altimeter): 30.11 inches Hg (1019.7 mb)
[Sea-level pressure: 1019.8 mb]
Winds: from the E (80 degrees) at 9 MPH (8 knots; 4.2 m/s)
Visibility: 10 or more miles (16+ km)
Ceiling: 6000 feet AGL
Clouds: broken clouds at 6000 feet AGL
Present Weather: no significant weather observed at this time
KPGD 181753Z 08008KT 10SM BKN060 26/17 A3011 RMK AO2 SLP198 T02610167 10267 20150 58025

Conditions at: KPGD observed 18 November 2018  16:53 UTC
Temperature: 25.0°C (77°F)
Dewpoint: 16.7°C (62°F) [RH = 60%]
Pressure (altimeter): 30.15 inches Hg (1021.1 mb)
[Sea-level pressure: 1021.1 mb]
Winds: from the E (90 degrees) at 5 MPH (4 knots; 2.1 m/s)
Visibility: 10 or more miles (16+ km)
Ceiling: 8000 feet AGL
Clouds: broken clouds at 8000 feet AGL
Present Weather: no significant weather observed at this time
KPGD 181653Z 09004KT 10SM BKN080 25/17 A3015 RMK AO2 SLP211 T02500167

Conditions at: KPGD observed 18 November 2018  15:53 UTC
Temperature: 22.2°C (72°F)
Dewpoint: 16.7°C (62°F) [RH = 71%]
Pressure (altimeter): 30.18 inches Hg (1022.1 mb)
[Sea-level pressure: 1022.0 mb]
Winds: calm
Visibility: 10 or more miles (16+ km)
Ceiling: 8000 feet AGL
Clouds: few clouds at 6000 feet AGL
overcast cloud deck at 8000 feet AGL
Present Weather: no significant weather observed at this time
KPGD 181553Z 00000KT 10SM FEW060 OVC080 22/17 A3018 RMK AO2 SLP220 T02220167

Conditions at: KPGD observed 18 November 2018  14:53 UTC
Temperature: 20.0°C (68°F)
Dewpoint: 16.1°C (61°F) [RH = 78%]
Pressure (altimeter): 30.19 inches Hg (1022.4 mb)
[Sea-level pressure: 1022.3 mb]
Winds: from the NNE (20 degrees) at 6 MPH (5 knots; 2.6 m/s)
Visibility: 10 or more miles (16+ km)
Ceiling: 6000 feet AGL
Clouds: broken clouds at 6000 feet AGL
overcast cloud deck at 8000 feet AGL
Present Weather: no significant weather observed at this time
KPGD 181453Z 02005KT 10SM BKN060 OVC080 20/16 A3019 RMK AO2 SLP223 T02000161 53018

Conditions at: KPGD observed 18 November 2018  13:53 UTC
Temperature: 18.9°C (66°F)
Dewpoint: 15.6°C (60°F) [RH = 81%]
Pressure (altimeter): 30.17 inches Hg (1021.8 mb)
[Sea-level pressure: 1021.6 mb]
Winds: from the NNE (30 degrees) at 6 MPH (5 knots; 2.6 m/s)
Visibility: 10 or more miles (16+ km)
Ceiling: 7500 feet AGL
Clouds: broken clouds at 7500 feet AGL
Present Weather: no significant weather observed at this time
KPGD 181353Z 03005KT 10SM BKN075 19/16 A3017 RMK AO2 SLP216 T01890156

Conditions at: KPGD observed 18 November 2018  12:53 UTC
Temperature: 16.1°C (61°F)
Dewpoint: 14.4°C (58°F) [RH = 90%]
Pressure (altimeter): 30.15 inches Hg (1021.1 mb)
[Sea-level pressure: 1021.0 mb]
Winds: from the NNE (30 degrees) at 7 MPH (6 knots; 3.1 m/s)
Visibility: 10 or more miles (16+ km)
Ceiling: 7000 feet AGL
Clouds: broken clouds at 7000 feet AGL
Present Weather: no significant weather observed at this time
KPGD 181253Z 03006KT 10SM BKN070 16/14 A3015 RMK AO2 SLP210 T01610144

Conditions at: KPGD observed 18 November 2018  11:53 UTC
Temperature: 15.0°C (59°F)
Dewpoint: 13.9°C (57°F) [RH = 93%]
Pressure (altimeter): 30.14 inches Hg (1020.7 mb)
[Sea-level pressure: 1020.5 mb]
Winds: calm
Visibility: 10 or more miles (16+ km)
Ceiling: at least 12,000 feet AGL
Clouds: scattered clouds at 7000 feet AGL
Present Weather: no significant weather observed at this time
KPGD 181153Z 00000KT 10SM SCT070 15/14 A3014 RMK AO2 SLP205 T01500139 10156 20139 53009

Conditions at: KPGD observed 18 November 2018  10:53 UTC
Temperature: 15.0°C (59°F)
Dewpoint: 13.9°C (57°F) [RH = 93%]
Pressure (altimeter): 30.12 inches Hg (1020.1 mb)
[Sea-level pressure: 1020.0 mb]
Winds: from the NE (40 degrees) at 6 MPH (5 knots; 2.6 m/s)
Visibility: 10 or more miles (16+ km)
Ceiling: at least 12,000 feet AGL
Clouds: few clouds at 7500 feet AGL
Present Weather: no significant weather observed at this time
KPGD 181053Z 04005KT 10SM FEW075 15/14 A3012 RMK AO2 SLP200 T01500139

Conditions at: KPGD observed 18 November 2018  09:53 UTC
Temperature: 15.6°C (60°F)
Dewpoint: 13.9°C (57°F) [RH = 90%]
Pressure (altimeter): 30.11 inches Hg (1019.7 mb)
[Sea-level pressure: 1019.7 mb]
Winds: from the NE (40 degrees) at 7 MPH (6 knots; 3.1 m/s)
Visibility: 10 or more miles (16+ km)
Ceiling: 8000 feet AGL
Clouds: broken clouds at 8000 feet AGL
Present Weather: automated observation with no human augmentation;
there may or may not be significant weather present at this time
KPGD 180953Z AUTO 04006KT 10SM BKN080 16/14 A3011 RMK AO2 SLP197 T01560139

Conditions at: KPGD observed 18 November 2018  08:53 UTC
Temperature: 15.0°C (59°F)
Dewpoint: 13.9°C (57°F) [RH = 93%]
Pressure (altimeter): 30.11 inches Hg (1019.7 mb)
[Sea-level pressure: 1019.6 mb]
Winds: from the NNE (20 degrees) at 6 MPH (5 knots; 2.6 m/s)
Visibility: 10 or more miles (16+ km)
Ceiling: at least 12,000 feet AGL
Clouds: scattered clouds at 7500 feet AGL
Present Weather: automated observation with no human augmentation;
there may or may not be significant weather present at this time
KPGD 180853Z AUTO 02005KT 10SM SCT075 15/14 A3011 RMK AO2 SLP196 T01500139 55002

Conditions at: KPGD observed 18 November 2018  07:53 UTC
Temperature: 15.0°C (59°F)
Dewpoint: 13.3°C (56°F) [RH = 90%]
Pressure (altimeter): 30.11 inches Hg (1019.7 mb)
[Sea-level pressure: 1019.6 mb]
Winds: from the NE (40 degrees) at 5 MPH (4 knots; 2.1 m/s)
Visibility: 10 or more miles (16+ km)
Ceiling: 7500 feet AGL
Clouds: broken clouds at 7500 feet AGL
Present Weather: automated observation with no human augmentation;
there may or may not be significant weather present at this time
KPGD 180753Z AUTO 04004KT 10SM BKN075 15/13 A3011 RMK AO2 SLP196 T01500133

Conditions at: KPGD observed 18 November 2018  06:53 UTC
Temperature: 13.9°C (57°F)
Dewpoint: 12.8°C (55°F) [RH = 93%]
Pressure (altimeter): 30.11 inches Hg (1019.7 mb)
[Sea-level pressure: 1019.7 mb]
Winds: from the NNE (30 degrees) at 5 MPH (4 knots; 2.1 m/s)
Visibility: 10 or more miles (16+ km)
Ceiling: at least 12,000 feet AGL
Clouds: few clouds at 7500 feet AGL
Present Weather: automated observation with no human augmentation;
there may or may not be significant weather present at this time
KPGD 180653Z AUTO 03004KT 10SM FEW075 14/13 A3011 RMK AO2 SLP197 T01390128

Conditions at: KPGD observed 18 November 2018  05:53 UTC
Temperature: 14.4°C (58°F)
Dewpoint: 12.8°C (55°F) [RH = 90%]
Pressure (altimeter): 30.12 inches Hg (1020.1 mb)
[Sea-level pressure: 1019.9 mb]
Winds: from the NE (50 degrees) at 5 MPH (4 knots; 2.1 m/s)
Visibility: 10 or more miles (16+ km)
Ceiling: at least 12,000 feet AGL
Clouds: sky clear below 12,000 feet AGL
Present Weather: automated observation with no human augmentation;
there may or may not be significant weather present at this time
KPGD 180553Z AUTO 05004KT 10SM CLR 14/13 A3012 RMK AO2 SLP199 T01440128 10178 20144 56008

Conditions at: KPGD observed 18 November 2018  04:53 UTC
Temperature: 14.4°C (58°F)
Dewpoint: 12.8°C (55°F) [RH = 90%]
Pressure (altimeter): 30.12 inches Hg (1020.1 mb)
[Sea-level pressure: 1020.0 mb]
Winds: from the NE (40 degrees) at 5 MPH (4 knots; 2.1 m/s)
Visibility: 10 or more miles (16+ km)
Ceiling: at least 12,000 feet AGL
Clouds: sky clear below 12,000 feet AGL
Present Weather: automated observation with no human augmentation;
there may or may not be significant weather present at this time
KPGD 180453Z AUTO 04004KT 10SM CLR 14/13 A3012 RMK AO2 SLP200 T01440128 402560094

Conditions at: KPGD observed 18 November 2018  03:53 UTC
Temperature: 15.0°C (59°F)
Dewpoint: 12.8°C (55°F) [RH = 87%]
Pressure (altimeter): 30.13 inches Hg (1020.4 mb)
[Sea-level pressure: 1020.3 mb]
Winds: from the NE (50 degrees) at 3 MPH (3 knots; 1.6 m/s)
Visibility: 5 miles (8 km)
Ceiling: at least 12,000 feet AGL
Clouds: sky clear below 12,000 feet AGL
Present Weather: BR  (mist)
KPGD 180353Z AUTO 05003KT 5SM BR CLR 15/13 A3013 RMK AO2 SLP203 T01500128

Conditions at: KPGD observed 18 November 2018  02:53 UTC
Temperature: 15.6°C (60°F)
Dewpoint: 12.8°C (55°F) [RH = 83%]
Pressure (altimeter): 30.14 inches Hg (1020.7 mb)
[Sea-level pressure: 1020.6 mb]
Winds: from the ENE (60 degrees) at 5 MPH (4 knots; 2.1 m/s)
Visibility: 10 or more miles (16+ km)
Ceiling: at least 12,000 feet AGL
Clouds: sky clear below 12,000 feet AGL
Present Weather: automated observation with no human augmentation;
there may or may not be significant weather present at this time
KPGD 180253Z AUTO 06004KT 10SM CLR 16/13 A3014 RMK AO2 SLP206 T01560128 51007

Conditions at: KPGD observed 18 November 2018  01:53 UTC
Temperature: 15.6°C (60°F)
Dewpoint: 12.8°C (55°F) [RH = 83%]
Pressure (altimeter): 30.14 inches Hg (1020.7 mb)
[Sea-level pressure: 1020.6 mb]
Winds: from the NE (50 degrees) at 8 MPH (7 knots; 3.6 m/s)
Visibility: 10 or more miles (16+ km)
Ceiling: at least 12,000 feet AGL
Clouds: sky clear below 12,000 feet AGL
Present Weather: automated observation with no human augmentation;
there may or may not be significant weather present at this time
KPGD 180153Z AUTO 05007KT 10SM CLR 16/13 A3014 RMK AO2 SLP206 T01560128

Conditions at: KPGD observed 18 November 2018  00:53 UTC
Temperature: 16.7°C (62°F)
Dewpoint: 12.2°C (54°F) [RH = 75%]
Pressure (altimeter): 30.13 inches Hg (1020.4 mb)
[Sea-level pressure: 1020.3 mb]
Winds: from the NE (40 degrees) at 7 MPH (6 knots; 3.1 m/s)
Visibility: 10 or more miles (16+ km)
Ceiling: at least 12,000 feet AGL
Clouds: few clouds at 5500 feet AGL
Present Weather: no significant weather observed at this time
KPGD 180053Z 04006KT 10SM FEW055 17/12 A3013 RMK AO2 SLP203 T01670122

Conditions at: KPGD observed 17 November 2018  23:53 UTC
Temperature: 17.2°C (63°F)
Dewpoint: 11.7°C (53°F) [RH = 70%]
Pressure (altimeter): 30.12 inches Hg (1020.1 mb)
[Sea-level pressure: 1019.9 mb]
Winds: from the NNE (20 degrees) at 6 MPH (5 knots; 2.6 m/s)
Visibility: 10 or more miles (16+ km)
Ceiling: at least 12,000 feet AGL
Clouds: sky clear below 12,000 feet AGL
Present Weather: no significant weather observed at this time
KPGD 172353Z 02005KT 10SM CLR 17/12 A3012 RMK AO2 SLP199 T01720117 10256 20172 51013

Conditions at: KPGD observed 17 November 2018  22:53 UTC
Temperature: 19.4°C (67°F)
Dewpoint: 12.2°C (54°F) [RH = 63%]
Pressure (altimeter): 30.11 inches Hg (1019.7 mb)
[Sea-level pressure: 1019.6 mb]
Winds: from the NNE (30 degrees) at 7 MPH (6 knots; 3.1 m/s)
Visibility: 10 or more miles (16+ km)
Ceiling: at least 12,000 feet AGL
Clouds: sky clear below 12,000 feet AGL
Present Weather: no significant weather observed at this time
KPGD 172253Z 03006KT 10SM CLR 19/12 A3011 RMK AO2 SLP196 T01940122

Conditions at: KPGD observed 17 November 2018  21:53 UTC
Temperature: 23.9°C (75°F)
Dewpoint: 11.1°C (52°F) [RH = 45%]
Pressure (altimeter): 30.10 inches Hg (1019.4 mb)
[Sea-level pressure: 1019.4 mb]
Winds: from the N (10 degrees) at 6 MPH (5 knots; 2.6 m/s)
Visibility: 10 or more miles (16+ km)
Ceiling: at least 12,000 feet AGL
Clouds: sky clear below 12,000 feet AGL
Present Weather: no significant weather observed at this time
KPGD 172153Z 01005KT 10SM CLR 24/11 A3010 RMK AO2 SLP194 T02390111

Conditions at: KPGD observed 17 November 2018  20:53 UTC
Temperature: 25.0°C (77°F)
Dewpoint: 11.1°C (52°F) [RH = 42%]
Pressure (altimeter): 30.08 inches Hg (1018.7 mb)
[Sea-level pressure: 1018.6 mb]
Winds: from the ENE (60 degrees) at 9 MPH (8 knots; 4.2 m/s)
Visibility: 10 or more miles (16+ km)
Ceiling: at least 12,000 feet AGL
Clouds: sky clear below 12,000 feet AGL
Present Weather: no significant weather observed at this time
KPGD 172053Z 06008KT 10SM CLR 25/11 A3008 RMK AO2 SLP186 T02500111 56010

Conditions at: KPGD observed 17 November 2018  19:53 UTC
Temperature: 25.6°C (78°F)
Dewpoint: 10.6°C (51°F) [RH = 39%]
Pressure (altimeter): 30.08 inches Hg (1018.7 mb)
[Sea-level pressure: 1018.8 mb]
Winds: from the ENE (70 degrees) at 10 MPH (9 knots; 4.7 m/s)
Visibility: 10 or more miles (16+ km)
Ceiling: at least 12,000 feet AGL
Clouds: sky clear below 12,000 feet AGL
Present Weather: no significant weather observed at this time
KPGD 171953Z 07009KT 10SM CLR 26/11 A3008 RMK AO2 SLP188 T02560106

Conditions at: KPGD observed 17 November 2018  18:53 UTC
Temperature: 24.4°C (76°F)
Dewpoint: 11.7°C (53°F) [RH = 45%]
Pressure (altimeter): 30.09 inches Hg (1019.0 mb)
[Sea-level pressure: 1019.1 mb]
Winds: from the E (100 degrees) at 8 MPH (7 knots; 3.6 m/s)
Visibility: 10 or more miles (16+ km)
Ceiling: at least 12,000 feet AGL
Clouds: sky clear below 12,000 feet AGL
Present Weather: no significant weather observed at this time
KPGD 171853Z 10007KT 10SM CLR 24/12 A3009 RMK AO2 SLP191 T02440117

Conditions at: KPGD observed 17 November 2018  17:53 UTC
Temperature: 23.9°C (75°F)
Dewpoint: 13.9°C (57°F) [RH = 54%]
Pressure (altimeter): 30.11 inches Hg (1019.7 mb)
[Sea-level pressure: 1019.7 mb]
Winds: from the E (90 degrees) at 10 MPH (9 knots; 4.7 m/s)
Visibility: 10 or more miles (16+ km)
Ceiling: at least 12,000 feet AGL
Clouds: sky clear below 12,000 feet AGL
Present Weather: no significant weather observed at this time
KPGD 171753Z 09009KT 10SM CLR 24/14 A3011 RMK AO2 SLP197 T02390139 10239 20094 58030

Conditions at: KPGD observed 17 November 2018  16:53 UTC
Temperature: 22.2°C (72°F)
Dewpoint: 13.3°C (56°F) [RH = 57%]
Pressure (altimeter): 30.16 inches Hg (1021.4 mb)
[Sea-level pressure: 1021.3 mb]
Winds: from the NNE (30 degrees) at 12 MPH (10 knots; 5.2 m/s)
Visibility: 10 or more miles (16+ km)
Ceiling: at least 12,000 feet AGL
Clouds: sky clear below 12,000 feet AGL
Present Weather: no significant weather observed at this time
KPGD 171653Z 03010KT 10SM CLR 22/13 A3016 RMK AO2 SLP213 T02220133

Conditions at: KPGD observed 17 November 2018  15:53 UTC
Temperature: 20.0°C (68°F)
Dewpoint: 12.2°C (54°F) [RH = 61%]
Pressure (altimeter): 30.18 inches Hg (1022.1 mb)
[Sea-level pressure: 1022.1 mb]
Winds: missing
Visibility: 10 or more miles (16+ km)
Ceiling: at least 12,000 feet AGL
Clouds: sky clear below 12,000 feet AGL
Present Weather: no significant weather observed at this time
KPGD 171553Z 10SM CLR 20/12 A3018 RMK AO2 SLP221 T02000122

Conditions at: KPGD observed 17 November 2018  14:53 UTC
Temperature: 17.8°C (64°F)
Dewpoint: 11.1°C (52°F) [RH = 65%]
Pressure (altimeter): 30.20 inches Hg (1022.8 mb)
[Sea-level pressure: 1022.7 mb]
Winds: from the NNE (20 degrees) at 9 MPH (8 knots; 4.2 m/s)
Visibility: 10 or more miles (16+ km)
Ceiling: at least 12,000 feet AGL
Clouds: sky clear below 12,000 feet AGL
Present Weather: no significant weather observed at this time
KPGD 171453Z 02008KT 10SM CLR 18/11 A3020 RMK AO2 SLP227 T01780111 50011

Conditions at: KPGD observed 17 November 2018  13:53 UTC
Temperature: 13.9°C (57°F)
Dewpoint: 9.4°C (49°F) [RH = 74%]
Pressure (altimeter): 30.20 inches Hg (1022.8 mb)
[Sea-level pressure: 1022.8 mb]
Winds: from the NNE (30 degrees) at 13 MPH (11 knots; 5.7 m/s)
Visibility: 10 or more miles (16+ km)
Ceiling: at least 12,000 feet AGL
Clouds: sky clear below 12,000 feet AGL
Present Weather: no significant weather observed at this time
KPGD 171353Z 03011KT 10SM CLR 14/09 A3020 RMK AO2 SLP228 T01390094

Conditions at: KPGD observed 17 November 2018  12:53 UTC
Temperature: 11.1°C (52°F)
Dewpoint: 8.3°C (47°F) [RH = 83%]
Pressure (altimeter): 30.19 inches Hg (1022.4 mb)
[Sea-level pressure: 1022.2 mb]
Winds: from the NNE (20 degrees) at 14 MPH (12 knots; 6.2 m/s)
Visibility: 10 or more miles (16+ km)
Ceiling: at least 12,000 feet AGL
Clouds: sky clear below 12,000 feet AGL
Present Weather: no significant weather observed at this time
KPGD 171253Z 02012KT 10SM CLR 11/08 A3019 RMK AO2 SLP222 T01110083

Conditions at: KPGD observed 17 November 2018  11:53 UTC
Temperature: 9.4°C (49°F)
Dewpoint: 7.8°C (46°F) [RH = 90%]
Pressure (altimeter): 30.17 inches Hg (1021.8 mb)
[Sea-level pressure: 1021.6 mb]
Winds: from the NNE (20 degrees) at 7 MPH (6 knots; 3.1 m/s)
Visibility: 10 or more miles (16+ km)
Ceiling: at least 12,000 feet AGL
Clouds: sky clear below 12,000 feet AGL
Present Weather:
SOME DATA ABOVE MAY BE INACCURATE!!!
"$" is an indication the sensor requires maintenance
KPGD 171153Z 02006KT 10SM CLR 09/08 A3017 RMK AO2 SLP216 T00940078 10111 20094 53012 $